• Join FlightAware (Why Join?)
  • Login
  • US Flag 
03:45AM EST


 

Airport Tracker/Info


-or-


 

Live Flight TrackerFlight Track Log ✈ NKS904 ✈ 11-May-2013 ✈ KDFW - KMCO

Flight Track Log - Related Links

Times and Time Zones

All times are in EDT time to prevent confusion due to time zone crossing. See the NKS904 flight status page for this flight to view local times or setup timezone preferences in your user account.

Time Position Orientation Groundspeed Altitude Reporting Facility
EDT Latitude Longitude Course Direction KTS MPH feet Rate Location/Type
12:39PM 32.9300 -97.0310 357° North 163 188 2,000  Level FlightAware
12:40PM 32.9530 -97.0240 14° North 202 232 2,500 1,620 Climbing FlightAware
12:40PM 32.9800 -97.0130 19° North 232 267 3,500 2,700 Climbing FlightAware
12:40PM 32.9950 -97.0070 19° North 236 272 4,300 3,780 Climbing FlightAware
12:41PM 33.0090 -96.9960 33° Northeast 237 273 5,400 4,080 Climbing FlightAware
12:41PM 33.0160 -96.9850 53° Northeast 240 276 6,000 2,880 Climbing FlightAware
12:41PM 33.0190 -96.9670 79° East 251 289 6,600 2,640 Climbing FlightAware
12:42PM 33.0160 -96.9230 95° East 274 315 8,000 2,700 Climbing FlightAware
12:42PM 33.0090 -96.8850 102° East 289 333 9,100 2,400 Climbing FlightAware
12:43PM 32.9890 -96.8140 109° East 319 367 10,800 1,740 Climbing FlightAware
12:43PM 32.9710 -96.7410 106° East 362 417 11,600 1,740 Climbing FlightAware
12:44PM 32.9480 -96.6500 107° East 382 440 13,300 2,220 Climbing FlightAware
12:45PM 32.9270 -96.5720 108° East 392 451 14,800 2,220 Climbing FlightAware
12:45PM 32.9060 -96.4890 107° East 398 458 16,300 1,920 Climbing FlightAware
12:46PM 32.8800 -96.3900 107° East 417 480 17,600 1,620 Climbing FlightAware
12:47PM 32.8650 -96.3080 102° East 433 498 18,500 1,500 Climbing FlightAware
12:48PM 32.8680 -96.1870 88° East 449 517 19,800 1,500 Climbing FlightAware
12:48PM 32.8700 -96.0910 89° East 461 531 20,800 2,220 Climbing FlightAware
12:49PM 32.8710 -96.0140 89° East 447 514 22,400 2,400 Climbing FlightAware
12:50PM 32.8730 -95.9040 89° East 449 517 23,800 1,800 Climbing FlightAware
12:50PM 32.8733 -95.8740 89° East 453 521 24,100 1,620 Climbing FlightAware ADS-B
12:50PM 32.8745 -95.7988 89° East 457 526 24,900 1,440 Climbing FlightAware ADS-B
12:51PM 32.8760 -95.7050 89° East 462 532 25,800 1,260 Climbing FlightAware
12:52PM 32.8774 -95.5905 89° East 472 543 26,700 1,200 Climbing FlightAware ADS-B
12:52PM 32.8787 -95.4900 89° East 477 549 27,500 1,260 Climbing FlightAware ADS-B
12:53PM 32.8798 -95.4020 89° East 487 560 28,200 1,260 Climbing FlightAware ADS-B
12:53PM 32.8816 -95.3629 87° East 492 566 28,500 1,080 Climbing FlightAware ADS-B
12:53PM 32.8837 -95.3433 83° East 495 570 28,600 600 Climbing FlightAware ADS-B
12:54PM 32.8968 -95.2593 79° East 509 586 28,900 360 Climbing FlightAware ADS-B
12:54PM 32.9102 -95.1716 80° East 521 600 29,000 60 Climbing FlightAware ADS-B
12:55PM 32.9266 -95.0637 80° East 527 606 29,000  Level FlightAware ADS-B
12:55PM 32.9426 -94.9580 80° East 526 605 29,000  Level FlightAware ADS-B
12:56PM 32.9642 -94.8145 80° East 527 606 29,000  Level FlightAware ADS-B
12:57PM 32.9930 -94.6220 80° East 527 606 29,000  Level FlightAware
12:58PM 33.0070 -94.5300 80° East 527 606 29,000  Level FlightAware
12:59PM 33.0200 -94.4400 80° East 527 606 29,000  Level FlightAware
12:59PM 33.0370 -94.3210 80° East 528 608 29,000  Level FlightAware
01:00PM 33.0520 -94.2240 80° East 528 608 29,000  Level FlightAware
01:01PM 33.0660 -94.1260 80° East 528 608 29,000  Level FlightAware
01:01PM 33.0060 -94.0242 125° Southeast 520 598 29,000  Level FlightAware ADS-B
01:01PM 32.9974 -93.9367 97° East 518 596 29,000  Level FlightAware ADS-B
01:02PM 32.9888 -93.8495 97° East 518 596 29,000  Level FlightAware ADS-B
01:03PM 32.9776 -93.7371 97° East 518 596 29,000  Level FlightAware ADS-B
01:03PM 32.9687 -93.6491 97° East 519 597 29,000  Level FlightAware ADS-B
01:04PM 32.9583 -93.5481 97° East 519 597 29,000  Level FlightAware ADS-B
01:05PM 32.9475 -93.4256 97° East 519 597 29,000  Level Fort Worth Center
01:06PM 32.9297 -93.2556 97° East 519 597 29,000  Level Fort Worth Center
01:07PM 32.9114 -93.0881 97° East 519 597 29,000  Level Fort Worth Center
01:08PM 32.8956 -92.9306 97° East 519 597 29,000  Level Fort Worth Center
01:09PM 32.8789 -92.7633 97° East 519 597 29,000  Level Fort Worth Center
01:10PM 32.8444 -92.4592 98° East 524 603 29,000  Level Memphis Center
01:11PM 32.8242 -92.2881 98° East 524 603 29,000  Level Memphis Center
01:12PM 32.8058 -92.1194 97° East 524 603 29,000  Level Memphis Center
01:13PM 32.7831 -91.9511 99° East 524 603 29,000  Level Memphis Center
01:14PM 32.7619 -91.7875 99° East 519 597 29,000  Level Memphis Center
01:15PM 32.7450 -91.6244 97° East 514 592 29,000 120 Level Memphis Center
01:16PM 32.7256 -91.4636 98° East 503 579 29,300 660 Climbing Memphis Center
01:17PM 32.7042 -91.2781 98° East 505 581 30,400 840 Climbing Memphis Center
01:18PM 32.6844 -91.1100 98° East 510 587 31,000 300 Climbing Memphis Center
01:19PM 32.6622 -90.9422 99° East 515 593 31,000  Level Memphis Center
01:20PM 32.6400 -90.7692 99° East 520 598 31,000  Level Memphis Center
01:21PM 32.6194 -90.6039 98° East 520 598 31,000  Level Memphis Center
01:22PM 32.5989 -90.4336 98° East 525 604 31,000  Level Memphis Center
01:23PM 32.5758 -90.2636 99° East 525 604 31,000  Level Memphis Center
01:24PM 32.5528 -90.0961 99° East 525 604 31,000  Level Memphis Center
01:25PM 32.5314 -89.9311 99° East 520 598 31,000  Level Memphis Center
01:26PM 32.5075 -89.7611 99° East 520 598 31,000  Level Memphis Center
01:27PM 32.4900 -89.6086 98° East 520 598 31,000  Level Memphis Center
01:28PM 32.4681 -89.4414 99° East 520 598 31,000  Level Memphis Center
01:34PM 32.3100 -88.5450 99° East 504 580 31,000  Level FlightAware
01:34PM 32.2810 -88.4340 107° East 502 578 31,100  Climbing FlightAware
01:35PM 32.2560 -88.3400 107° East 499 574 31,000 -120 Descending FlightAware
01:36PM 32.2210 -88.2130 108° East 497 572 31,000  Level FlightAware
01:36PM 32.2000 -88.1310 107° East 497 572 31,000  Level FlightAware
01:37PM 32.1710 -88.0200 107° East 497 572 31,000  Level FlightAware
01:38PM 32.1490 -87.9320 106° East 497 572 31,000  Level FlightAware
01:39PM 32.1260 -87.8440 107° East 497 572 31,000  Level FlightAware
01:39PM 32.1030 -87.7560 107° East 497 572 31,000  Level FlightAware
01:40PM 32.0800 -87.6670 107° East 497 572 31,000  Level FlightAware
01:41PM 32.0570 -87.5790 107° East 497 572 31,000  Level FlightAware
01:41PM 32.0340 -87.4910 107° East 497 572 31,000  Level FlightAware
01:42PM 32.0110 -87.4030 107° East 497 572 31,000  Level FlightAware
01:43PM 31.9880 -87.3150 107° East 497 572 31,000  Level FlightAware
01:43PM 31.9660 -87.2260 106° East 497 572 31,000  Level FlightAware
01:44PM 31.9370 -87.1160 107° East 497 572 31,000  Level FlightAware
01:45PM 31.9140 -87.0280 107° East 497 572 31,000  Level FlightAware
01:45PM 31.8910 -86.9400 107° East 497 572 31,000 -2,940 Level FlightAware
01:46PM 31.8119 -86.7331 107° East 465 535 28,000 -2,940 Descending Jacksonville Center
01:47PM 31.7703 -86.5897 109° East 465 535 27,000 -540 Descending Jacksonville Center
01:48PM 31.7283 -86.4489 109° East 465 535 27,000  Level Jacksonville Center
01:49PM 31.6883 -86.3081 108° East 459 528 27,000  Level Jacksonville Center
01:50PM 31.6503 -86.1653 107° East 459 528 27,000  Level Jacksonville Center
01:51PM 31.6058 -86.0222 110° East 459 528 27,000  Level Jacksonville Center
01:52PM 31.5656 -85.8744 108° East 465 535 27,000  Level Jacksonville Center
01:53PM 31.5231 -85.7294 109° East 470 541 27,000  Level Jacksonville Center
01:54PM 31.4803 -85.5892 110° East 470 541 27,000  Level Jacksonville Center
01:55PM 31.4411 -85.4567 109° East 470 541 27,000  Level Jacksonville Center
01:56PM 31.3981 -85.3167 110° East 465 535 27,000  Level Jacksonville Center
01:57PM 31.3403 -85.1644 114° Southeast 460 529 27,000  Level Jacksonville Center
01:58PM 31.2753 -85.0558 125° Southeast 454 522 27,000  Level Jacksonville Center
01:59PM 31.2150 -84.9258 118° Southeast 454 522 27,000  Level Jacksonville Center
02:00PM 31.1500 -84.7981 121° Southeast 454 522 27,000  Level Jacksonville Center
02:01PM 31.0872 -84.6683 119° Southeast 454 522 27,000 -180 Level Jacksonville Center
02:07PM 30.8310 -83.8580 119° Southeast 419 482 26,000 -180 Descending FlightAware
02:07PM 30.8090 -83.7910 111° Southeast 419 482 26,000  Level FlightAware
02:08PM 30.7860 -83.7190 110° East 419 482 26,000 -840 Level FlightAware
02:09PM 30.8150 -83.8090 291° West 419 482 25,000 -720 Descending FlightAware
02:09PM 30.7860 -83.7190 111° Southeast 419 482 25,000  Level FlightAware
02:10PM 30.7620 -83.6480 111° Southeast 419 482 25,000  Level FlightAware
02:11PM 30.7440 -83.5940 111° Southeast 419 482 25,000  Level FlightAware
02:11PM 30.7210 -83.5230 111° Southeast 419 482 25,000  Level FlightAware
02:12PM 30.6970 -83.4510 111° Southeast 419 482 25,000  Level FlightAware
02:13PM 30.5522 -83.1556 111° Southeast 392 451 25,000 -60 Level Jacksonville Center
02:14PM 30.4731 -83.0636 135° Southeast 392 451 24,900  Descending Jacksonville Center
02:15PM 30.3917 -82.9600 132° Southeast 410 472 25,000  Climbing Jacksonville Center
02:16PM 30.3083 -82.8589 134° Southeast 429 494 24,900  Descending Jacksonville Center
02:17PM 30.2164 -82.7653 139° Southeast 429 494 25,000  Climbing Jacksonville Center
02:18PM 30.1328 -82.6692 135° Southeast 429 494 25,000  Level Jacksonville Center
02:19PM 30.0511 -82.5589 131° Southeast 435 501 25,000  Level Jacksonville Center
02:20PM 29.9567 -82.4586 137° Southeast 435 501 25,000 -960 Level Jacksonville Center
02:26PM 29.3630 -82.0670 137° Southeast 368 423 18,500 -1,140 Descending FlightAware
02:27PM 29.3050 -82.0280 150° Southeast 362 417 17,400 -1,200 Descending FlightAware
02:27PM 29.2340 -81.9830 151° Southeast 362 417 16,600 -480 Descending FlightAware
02:28PM 29.1720 -81.9430 151° Southeast 362 417 16,600 -2,160 Level FlightAware
02:29PM 29.0910 -81.8940 152° Southeast 357 411 13,400 -3,480 Descending FlightAware
02:29PM 29.0520 -81.8660 148° Southeast 352 405 12,600 -1,200 Descending FlightAware
02:30PM 29.0030 -81.8310 148° Southeast 328 377 12,100 -480 Descending FlightAware
02:31PM 28.9640 -81.8030 148° Southeast 328 377 12,100 -360 Level FlightAware
02:31PM 28.9510 -81.7710 115° Southeast 314 361 11,800 -1,200 Descending FlightAware
02:31PM 28.9310 -81.7440 130° Southeast 310 357 11,300 -1,500 Descending FlightAware
02:32PM 28.8710 -81.6690 132° Southeast 308 354 9,700 -1,500 Descending FlightAware
02:33PM 28.8420 -81.6320 132° Southeast 291 335 9,100 -1,080 Descending FlightAware
02:33PM 28.8330 -81.6200 131° Southeast 293 337 9,000 -300 Descending FlightAware
02:33PM 28.8070 -81.5880 133° Southeast 266 306 8,900 -420 Descending FlightAware
02:34PM 28.7830 -81.5570 131° Southeast 253 291 8,600 -900 Descending FlightAware
02:34PM 28.7650 -81.5340 132° Southeast 246 283 8,100 -1,200 Descending FlightAware
02:35PM 28.7600 -81.5270 129° Southeast 248 285 7,900 -1,380 Descending FlightAware
02:35PM 28.7450 -81.4790 110° East 255 293 7,100 -1,200 Descending FlightAware
02:36PM 28.7430 -81.4270 92° East 248 285 6,400 -1,200 Descending FlightAware
02:36PM 28.7300 -81.3970 116° Southeast 235 270 5,700 -1,500 Descending FlightAware
02:37PM 28.7120 -81.3860 152° Southeast 227 261 5,300 -1,500 Descending FlightAware
02:37PM 28.6890 -81.3780 163° South 217 250 4,700 -1,440 Descending FlightAware
02:37PM 28.6650 -81.3710 166° South 217 250 4,100 -1,440 Descending FlightAware
02:38PM 28.6370 -81.3630 166° South 213 245 3,500 -1,320 Descending FlightAware
02:38PM 28.6150 -81.3560 164° South 224 258 3,000 -840 Descending FlightAware
02:39PM 28.5780 -81.3370 156° South 186 214 2,600 -420 Descending FlightAware
02:39PM 28.5530 -81.3290 164° South 130 150 2,500 -360 Descending FlightAware
02:40PM 28.5400 -81.3280 176° South 143 165 2,300 -1,080 Descending FlightAware
02:41PM 28.5060 -81.3280 180° South 133 153 1,300 -1,140 Descending FlightAware
02:41PM 28.4900 -81.3280 180° South 130 150 900 -960 Descending FlightAware
02:41PM 28.4730 -81.3270 177° South 133 153 500 -720 Descending FlightAware
02:42PM 28.4590 -81.3270 180° South 131 151 300 -480 Descending FlightAware